»·PEaware :: N899M KLAS-KLAX

N899M :: KLAS-KLAX

FLIGHT INFORMATION

Flight Status: Arrived
Operator: Privately registered:
United States
More flights under this callsign
Pilot: Robert C. (30425)
Aircraft: Unknown
(EPIC)
More flights by this aircraft type
Origin: KLAS McCarran Intl
United States
Destination: KLAX Los Angeles Intl
United States
More flights between these airports :: More routes between these airports
Route: +V538 GFS V210 HEC V12 PMD KIMMO3
File this flight plan on PilotEdge
Remarks:
Altitude:
(Current/Filed)
14,000ft
Speed:
(Current/Filed)
300kts
Departed: 21-Oct-20 07:39 PM
Arrived: 21-Oct-20 08:43 PM
Distance/Time
Traveled:
205nm/1:04
Distance/Time
To Go:
Arrived

Flight Plot

Page will automatically refresh every two minutes.

Flight plan parsing failed; only flown route is shown


Map Options




Map Legend


Flown Route
Filed Route
Departure Airport
Arrival Airport
Navaid (VOR, NDB)
Fix

Horizontal Profiles

Position Reports

Time Latitude Longitude Heading Altitude Ground
Speed
21-Oct-20 19:06 36.097196 -115.161300 293 2102ft 0kts
21-Oct-20 19:07 36.097196 -115.161300 293 2102ft 0kts
21-Oct-20 19:08 36.097196 -115.161300 293 2102ft 0kts
21-Oct-20 19:09 36.097196 -115.161300 293 2102ft 0kts
21-Oct-20 19:10 36.097196 -115.161300 293 2102ft 0kts
21-Oct-20 19:11 36.097196 -115.161300 293 2102ft 0kts
21-Oct-20 19:12 36.097196 -115.161300 293 2102ft 0kts
21-Oct-20 19:13 36.097196 -115.161300 293 2102ft 0kts
21-Oct-20 19:14 36.097196 -115.161300 293 2102ft 0kts
21-Oct-20 19:15 36.097196 -115.161300 293 2102ft 0kts
21-Oct-20 19:16 36.097196 -115.161300 293 2102ft 0kts
21-Oct-20 19:17 36.097196 -115.161300 293 2102ft 0kts
21-Oct-20 19:18 36.097196 -115.161300 293 2102ft 0kts
21-Oct-20 19:19 36.097196 -115.161300 293 2102ft 0kts
21-Oct-20 19:20 36.097196 -115.161300 293 2102ft 0kts
21-Oct-20 19:21 36.097196 -115.161300 293 2102ft 0kts
21-Oct-20 19:22 36.097196 -115.161300 293 2102ft 0kts
21-Oct-20 19:23 36.097196 -115.161300 293 2102ft 0kts
21-Oct-20 19:24 36.097196 -115.161300 293 2102ft 0kts
21-Oct-20 19:25 36.097196 -115.161300 293 2102ft 0kts
21-Oct-20 19:26 36.097196 -115.161300 293 2102ft 0kts
21-Oct-20 19:27 36.097196 -115.161300 293 2102ft 0kts
21-Oct-20 19:28 36.097196 -115.161300 293 2102ft 0kts
21-Oct-20 19:29 36.097196 -115.161300 293 2102ft 0kts
21-Oct-20 19:30 36.097196 -115.161300 293 2102ft 0kts
21-Oct-20 19:31 36.097196 -115.161300 293 2102ft 0kts
21-Oct-20 19:32 36.097196 -115.161300 293 2102ft 0kts
21-Oct-20 19:33 36.097241 -115.161415 302 2102ft 1kts
21-Oct-20 19:34 36.097789 -115.160957 73 2100ft 5kts
21-Oct-20 19:35 36.099532 -115.158743 59 2089ft 10kts
21-Oct-20 19:36 36.099881 -115.157613 92 2085ft 0kts
21-Oct-20 19:37 36.099355 -115.156697 174 2083ft 16kts
21-Oct-20 19:38 36.068658 -115.173599 205 2641ft 211kts
21-Oct-20 19:39 36.005347 -115.204190 201 3998ft 263kts
21-Oct-20 19:40 35.936057 -115.237642 201 5684ft 268kts
21-Oct-20 19:41 35.862722 -115.248156 177 7487ft 271kts
21-Oct-20 19:42 35.787659 -115.240862 177 9287ft 273kts
21-Oct-20 19:43 35.711835 -115.233275 177 11085ft 276kts
21-Oct-20 19:44 35.635042 -115.225699 178 12880ft 279kts
21-Oct-20 19:45 35.556301 -115.217972 178 14083ft 299kts
21-Oct-20 19:46 35.472333 -115.209721 178 14080ft 300kts
21-Oct-20 19:47 35.389558 -115.201607 178 14081ft 298kts
21-Oct-20 19:48 35.306855 -115.193516 178 14056ft 299kts
21-Oct-20 19:50 35.224111 -115.185436 178 14008ft 299kts
21-Oct-20 19:51 35.142850 -115.187325 215 13986ft 290kts
21-Oct-20 19:52 35.106588 -115.273759 251 14004ft 292kts
21-Oct-20 19:53 35.082196 -115.368681 252 14012ft 293kts
21-Oct-20 19:54 35.058068 -115.463018 252 14012ft 294kts
21-Oct-20 19:55 35.033591 -115.558368 252 14045ft 293kts
21-Oct-20 19:56 35.009149 -115.653203 252 14089ft 294kts
21-Oct-20 19:57 34.984427 -115.748856 252 14103ft 296kts
21-Oct-20 19:58 34.959526 -115.844827 252 14094ft 299kts
21-Oct-20 19:59 34.934280 -115.941767 252 14046ft 302kts
21-Oct-20 20:00 34.908724 -116.039539 252 14045ft 303kts
21-Oct-20 20:01 34.882941 -116.137813 252 14052ft 304kts
21-Oct-20 20:02 34.857505 -116.234404 252 14038ft 306kts
21-Oct-20 20:03 34.831396 -116.333191 252 14011ft 307kts
21-Oct-20 20:04 34.805164 -116.432080 252 13990ft 307kts
21-Oct-20 20:05 34.790119 -116.533848 263 13989ft 306kts
21-Oct-20 20:05 34.781742 -116.619521 263 13989ft 306kts
21-Oct-20 20:07 34.769933 -116.739569 263 13990ft 306kts
21-Oct-20 20:07 34.761426 -116.825285 263 13990ft 306kts
21-Oct-20 20:09 34.749435 -116.945209 263 14012ft 305kts
21-Oct-20 20:09 34.740836 -117.030530 262 14035ft 303kts
21-Oct-20 20:10 34.730460 -117.132142 261 14066ft 300kts
21-Oct-20 20:11 34.720041 -117.232954 261 14072ft 299kts
21-Oct-20 20:12 34.709611 -117.333160 261 14072ft 299kts
21-Oct-20 20:13 34.699102 -117.433656 261 14072ft 299kts
21-Oct-20 20:14 34.688530 -117.534254 261 14072ft 299kts
21-Oct-20 20:15 34.677899 -117.634569 261 13999ft 301kts
21-Oct-20 20:16 34.667114 -117.735537 261 13980ft 301kts
21-Oct-20 20:17 34.656213 -117.836548 261 13965ft 302kts
21-Oct-20 20:18 34.645192 -117.937765 261 13974ft 301kts
21-Oct-20 20:19 34.634099 -118.038847 260 13985ft 301kts
21-Oct-20 20:20 34.592981 -118.125193 232 13832ft 304kts
21-Oct-20 20:21 34.544157 -118.203601 232 12157ft 283kts
21-Oct-20 20:22 34.498095 -118.277172 232 9673ft 270kts
21-Oct-20 20:23 34.456561 -118.343362 233 8988ft 216kts
21-Oct-20 20:24 34.422376 -118.397759 233 8994ft 192kts
21-Oct-20 20:25 34.374682 -118.396389 155 8717ft 200kts
21-Oct-20 20:26 34.321817 -118.365790 154 7727ft 216kts
21-Oct-20 20:27 34.267595 -118.334266 155 6979ft 202kts
21-Oct-20 20:28 34.228379 -118.311487 156 6998ft 147kts
21-Oct-20 20:29 34.185647 -118.286721 156 6987ft 183kts
21-Oct-20 20:30 34.139257 -118.257642 151 6550ft 189kts
21-Oct-20 20:31 34.095150 -118.227090 151 5433ft 179kts
21-Oct-20 20:32 34.052247 -118.197596 151 4322ft 173kts
21-Oct-20 20:33 34.014456 -118.171886 151 3970ft 144kts
21-Oct-20 20:34 33.984090 -118.151361 151 3981ft 133kts
21-Oct-20 20:35 33.952743 -118.157564 263 3799ft 161kts
21-Oct-20 20:36 33.955328 -118.202188 265 3114ft 174kts
21-Oct-20 20:37 33.951540 -118.243309 262 2362ft 103kts
21-Oct-20 20:38 33.947681 -118.281382 262 1814ft 104kts
21-Oct-20 20:39 33.944051 -118.317142 261 1213ft 103kts
21-Oct-20 20:40 33.940555 -118.351421 262 656ft 103kts
21-Oct-20 20:41 33.937029 -118.385297 262 116ft 87kts
21-Oct-20 20:42 33.934277 -118.393911 230 106ft 10kts
21-Oct-20 20:43 33.933816 -118.393305 52 105ft 4kts
21-Oct-20 20:44 33.933592 -118.393063 259 105ft 0kts
21-Oct-20 20:45 33.933592 -118.393063 259 105ft 0kts
21-Oct-20 20:46 33.933592 -118.393063 259 105ft 0kts
21-Oct-20 20:47 33.933592 -118.393063 259 105ft 0kts
21-Oct-20 20:48 33.933592 -118.393063 259 105ft 0kts
21-Oct-20 20:49 33.933592 -118.393063 259 105ft 0kts
21-Oct-20 20:50 33.933592 -118.393063 259 105ft 0kts
21-Oct-20 20:51 33.933592 -118.393063 259 105ft 0kts
21-Oct-20 20:52 33.933592 -118.393063 259 105ft 0kts
21-Oct-20 20:53 33.933592 -118.393063 259 105ft 0kts
21-Oct-20 20:54 33.933592 -118.393063 259 105ft 0kts
21-Oct-20 20:55 33.933592 -118.393063 259 105ft 0kts
21-Oct-20 20:56 33.933592 -118.393063 259 105ft 0kts
21-Oct-20 20:57 33.933592 -118.393063 259 105ft 0kts

Navigation Log

Ident Type
Flight plan parsing failed, navigation log unavailable